Time;durP1;ratioP1;P1;durP2;ratioP2;P2;SDS_P1;SDS_P2;PMS_P1;PMS_P2;Temp;Humidity;BMP_temperature;BMP_pressure;BME280_temperature;BME280_humidity;BME280_pressure;Samples;Min_cycle;Max_cycle;Signal;HPM_P1;HPM_P2
2023/12/06 00:01:19;;;;;;;3.60;3.40;;;;;;;;;;6212975;23;20208;-87
2023/12/06 00:03:48;;;;;;;1.60;1.57;;;;;;;;;;6213463;23;20171;-88
2023/12/06 00:06:17;;;;;;;3.53;3.23;;;;;;;;;;6212724;23;20198;-88
2023/12/06 00:08:45;;;;;;;3.23;3.03;;;;;;;;;;6214742;23;20175;-88
2023/12/06 00:11:16;;;;;;;5.23;2.60;;;;;;;;;;6214987;23;20257;-88
2023/12/06 00:13:44;;;;;;;2.47;2.30;;;;;;;;;;6214874;23;20170;-88
2023/12/06 00:16:13;;;;;;;1.20;1.13;;;;;;;;;;6214202;23;20198;-88
2023/12/06 00:18:43;;;;;;;1.00;1.00;;;;;;;;;;6214488;23;20181;-88
2023/12/06 00:21:12;;;;;;;9.43;5.30;;;;;;;;;;6214677;23;20204;-87
2023/12/06 00:23:41;;;;;;;4.63;3.53;;;;;;;;;;6214362;23;20210;-88
2023/12/06 00:26:10;;;;;;;3.57;3.23;;;;;;;;;;6214185;23;20209;-88
2023/12/06 00:28:39;;;;;;;9.63;3.60;;;;;;;;;;6213766;23;20186;-88
2023/12/06 00:31:09;;;;;;;3.10;2.90;;;;;;;;;;6214819;23;20171;-88
2023/12/06 00:33:37;;;;;;;3.40;3.00;;;;;;;;;;6214701;23;20170;-88
2023/12/06 00:36:07;;;;;;;2.50;2.40;;;;;;;;;;6214302;23;20189;-88
2023/12/06 00:38:35;;;;;;;4.20;3.40;;;;;;;;;;6214138;23;20202;-88
2023/12/06 00:41:04;;;;;;;3.97;3.67;;;;;;;;;;6214828;23;20221;-88
2023/12/06 00:43:32;;;;;;;3.70;3.10;;;;;;;;;;6215106;23;20178;-88
2023/12/06 00:46:02;;;;;;;9.50;6.37;;;;;;;;;;6214576;23;20175;-88
2023/12/06 00:48:30;;;;;;;2.63;2.43;;;;;;;;;;6214052;23;20183;-88
2023/12/06 00:51:01;;;;;;;2.67;2.47;;;;;;;;;;6214952;23;20205;-88
2023/12/06 00:53:30;;;;;;;1.00;1.00;;;;;;;;;;6214793;23;20174;-87
2023/12/06 00:55:58;;;;;;;7.47;1.33;;;;;;;;;;6214319;23;20185;-88
2023/12/06 00:58:27;;;;;;;1.10;1.10;;;;;;;;;;6214399;23;20209;-88
2023/12/06 01:00:56;;;;;;;1.97;1.90;;;;;;;;;;6214289;23;20183;-88
2023/12/06 01:03:25;;;;;;;3.13;2.90;;;;;;;;;;6214863;23;20174;-88
2023/12/06 01:05:55;;;;;;;0.73;0.73;;;;;;;;;;6214213;23;20166;-88
2023/12/06 01:08:24;;;;;;;3.07;2.90;;;;;;;;;;6213801;23;20213;-88
2023/12/06 01:10:54;;;;;;;2.70;2.50;;;;;;;;;;6214379;23;20174;-88
2023/12/06 01:13:22;;;;;;;5.00;4.60;;;;;;;;;;6214691;23;20181;-88
2023/12/06 01:15:51;;;;;;;1.83;1.80;;;;;;;;;;6214392;23;20248;-87
2023/12/06 01:18:19;;;;;;;3.70;3.40;;;;;;;;;;6213778;23;20490;-88
2023/12/06 01:20:49;;;;;;;2.83;2.47;;;;;;;;;;6214093;23;20186;-88
2023/12/06 01:23:18;;;;;;;1.93;1.93;;;;;;;;;;6214856;23;20222;-88
2023/12/06 01:25:46;;;;;;;2.00;1.93;;;;;;;;;;6213679;23;20202;-88
2023/12/06 01:28:15;;;;;;;0.90;0.90;;;;;;;;;;6213534;23;20194;-88
2023/12/06 01:30:43;;;;;;;1.83;1.73;;;;;;;;;;6214293;23;20205;-88
2023/12/06 01:33:12;;;;;;;4.47;3.10;;;;;;;;;;6214644;23;20175;-88
2023/12/06 01:35:40;;;;;;;2.47;2.33;;;;;;;;;;6214201;23;20179;-88
2023/12/06 01:38:10;;;;;;;2.20;2.10;;;;;;;;;;6213690;23;20197;-88
2023/12/06 01:40:40;;;;;;;1.47;1.37;;;;;;;;;;6214309;23;20187;-88
2023/12/06 01:43:09;;;;;;;3.70;3.40;;;;;;;;;;6214277;23;20192;-87
2023/12/06 01:45:37;;;;;;;3.17;2.93;;;;;;;;;;6213859;23;20181;-87
2023/12/06 01:48:06;;;;;;;2.23;2.10;;;;;;;;;;6213518;23;20218;-87
2023/12/06 01:50:36;;;;;;;3.77;2.83;;;;;;;;;;6213898;23;20178;-87
2023/12/06 01:53:05;;;;;;;5.30;3.33;;;;;;;;;;6214155;23;20174;-88
2023/12/06 01:55:35;;;;;;;1.37;1.37;;;;;;;;;;6213355;23;20212;-88
2023/12/06 01:58:04;;;;;;;0.80;0.80;;;;;;;;;;6213438;23;20212;-88
2023/12/06 02:00:32;;;;;;;1.50;1.40;;;;;;;;;;6213342;23;20202;-88
2023/12/06 02:03:01;;;;;;;0.80;0.80;;;;;;;;;;6213997;23;20197;-87
2023/12/06 02:05:30;;;;;;;0.87;0.87;;;;;;;;;;6213574;23;20178;-88
2023/12/06 02:07:59;;;;;;;2.33;2.20;;;;;;;;;;6213363;23;20174;-88
2023/12/06 02:10:27;;;;;;;1.87;1.73;;;;;;;;;;6214069;23;20174;-88
2023/12/06 02:12:57;;;;;;;2.10;2.00;;;;;;;;;;6213947;23;20174;-88
2023/12/06 02:15:26;;;;;;;1.70;1.60;;;;;;;;;;6213814;23;20182;-88
2023/12/06 02:17:56;;;;;;;7.27;2.97;;;;;;;;;;6213181;23;20178;-88
2023/12/06 02:20:25;;;;;;;2.00;1.90;;;;;;;;;;6213553;23;20194;-87
2023/12/06 02:22:54;;;;;;;5.07;2.37;;;;;;;;;;6213593;23;20213;-88
2023/12/06 02:25:24;;;;;;;3.37;2.33;;;;;;;;;;6213259;23;20202;-88
2023/12/06 02:27:53;;;;;;;1.57;1.57;;;;;;;;;;6213177;23;20238;-88
2023/12/06 02:30:21;;;;;;;2.33;2.00;;;;;;;;;;6213064;23;20205;-88
2023/12/06 02:32:50;;;;;;;4.40;2.40;;;;;;;;;;6214172;23;20238;-88
2023/12/06 02:35:22;;;;;;;1.73;1.70;;;;;;;;;;6213191;23;20177;-88
2023/12/06 02:37:51;;;;;;;5.30;2.00;;;;;;;;;;6212695;23;20176;-88
2023/12/06 02:40:21;;;;;;;2.13;2.00;;;;;;;;;;6213346;23;20185;-88
2023/12/06 02:42:51;;;;;;;5.83;2.70;;;;;;;;;;6213602;23;20179;-87
2023/12/06 02:45:20;;;;;;;4.90;3.20;;;;;;;;;;6213344;23;20170;-88
2023/12/06 02:47:48;;;;;;;2.10;2.03;;;;;;;;;;6213331;23;20178;-88
2023/12/06 02:50:17;;;;;;;3.93;3.43;;;;;;;;;;6213079;23;20177;-87
2023/12/06 02:52:45;;;;;;;4.00;3.00;;;;;;;;;;6213718;23;20184;-88
2023/12/06 02:55:14;;;;;;;7.03;5.37;;;;;;;;;;6213272;23;20170;-88
2023/12/06 02:57:42;;;;;;;3.87;3.20;;;;;;;;;;6212809;23;20204;-88
2023/12/06 03:00:13;;;;;;;5.30;4.10;;;;;;;;;;6213305;23;20202;-88
2023/12/06 03:02:42;;;;;;;6.10;5.63;;;;;;;;;;6213456;23;20244;-88
2023/12/06 03:05:11;;;;;;;5.73;5.03;;;;;;;;;;6213294;23;20183;-88
2023/12/06 03:07:39;;;;;;;9.33;5.73;;;;;;;;;;6213358;23;20174;-88
2023/12/06 03:10:08;;;;;;;3.30;2.97;;;;;;;;;;6212927;23;20178;-88
2023/12/06 03:12:37;;;;;;;9.27;4.07;;;;;;;;;;6213713;23;20182;-91
2023/12/06 03:15:06;;;;;;;4.83;4.47;;;;;;;;;;6214182;23;20181;-90
2023/12/06 03:17:36;;;;;;;8.60;5.90;;;;;;;;;;6213244;23;20197;-90
2023/12/06 03:20:06;;;;;;;2.70;2.50;;;;;;;;;;6213525;23;20174;-91
2023/12/06 03:22:35;;;;;;;1.70;1.60;;;;;;;;;;6213438;23;20202;-90
2023/12/06 03:25:05;;;;;;;0.70;0.70;;;;;;;;;;6213617;23;20260;-90
2023/12/06 03:27:33;;;;;;;4.17;4.00;;;;;;;;;;6213282;23;20167;-90
2023/12/06 03:30:01;;;;;;;4.30;4.10;;;;;;;;;;6213559;23;20166;-91
2023/12/06 03:32:30;;;;;;;2.40;2.30;;;;;;;;;;6213916;23;20174;-90
2023/12/06 03:34:59;;;;;;;4.03;3.70;;;;;;;;;;6213390;23;20197;-90
2023/12/06 03:37:28;;;;;;;3.53;3.23;;;;;;;;;;6213596;23;20179;-90
2023/12/06 03:39:57;;;;;;;0.87;0.87;;;;;;;;;;6213356;23;20183;-90
2023/12/06 03:42:25;;;;;;;1.50;1.40;;;;;;;;;;6213862;23;20190;-90
2023/12/06 03:44:54;;;;;;;6.43;4.23;;;;;;;;;;6215495;23;20173;-89
2023/12/06 03:47:23;;;;;;;3.13;2.87;;;;;;;;;;6214616;23;20213;-89
2023/12/06 03:49:52;;;;;;;6.97;4.90;;;;;;;;;;6215471;23;20182;-90
2023/12/06 03:52:22;;;;;;;9.67;5.17;;;;;;;;;;6215659;23;20178;-90
2023/12/06 03:54:51;;;;;;;7.90;4.90;;;;;;;;;;6215382;23;20248;-90
2023/12/06 03:57:19;;;;;;;5.80;4.40;;;;;;;;;;6214894;23;20260;-90
2023/12/06 03:59:48;;;;;;;10.53;6.50;;;;;;;;;;6214999;23;20175;-90
2023/12/06 04:02:17;;;;;;;8.87;4.43;;;;;;;;;;6215341;23;20196;-90
2023/12/06 04:04:46;;;;;;;4.30;3.40;;;;;;;;;;6215277;23;20170;-90
2023/12/06 04:07:15;;;;;;;4.33;4.00;;;;;;;;;;6214932;23;20177;-90
2023/12/06 04:09:46;;;;;;;15.77;6.97;;;;;;;;;;6214974;23;20196;-91
2023/12/06 04:12:15;;;;;;;7.03;6.43;;;;;;;;;;6215729;23;20217;-90
2023/12/06 04:14:43;;;;;;;18.13;7.97;;;;;;;;;;6215445;23;20201;-91
2023/12/06 04:17:12;;;;;;;12.77;6.20;;;;;;;;;;6214583;23;20175;-90
2023/12/06 04:19:41;;;;;;;5.90;4.83;;;;;;;;;;6214850;23;20179;-91
2023/12/06 04:22:09;;;;;;;11.30;7.53;;;;;;;;;;6214740;23;20269;-91
2023/12/06 04:24:38;;;;;;;4.90;3.20;;;;;;;;;;6215148;23;20210;-90
2023/12/06 04:27:08;;;;;;;6.83;4.83;;;;;;;;;;6214438;23;20175;-91
2023/12/06 04:29:37;;;;;;;8.97;6.40;;;;;;;;;;6214728;23;20174;-91
2023/12/06 04:32:05;;;;;;;5.00;4.53;;;;;;;;;;6215105;23;20202;-90
2023/12/06 04:34:34;;;;;;;4.37;4.03;;;;;;;;;;6215414;23;20221;-90
2023/12/06 04:37:03;;;;;;;3.97;2.70;;;;;;;;;;6214934;23;20241;-91
2023/12/06 04:39:32;;;;;;;3.83;3.53;;;;;;;;;;6214228;23;20178;-90
2023/12/06 04:42:01;;;;;;;9.73;3.70;;;;;;;;;;6214677;23;20183;-90
2023/12/06 04:44:31;;;;;;;4.67;4.20;;;;;;;;;;6214885;23;20170;-90
2023/12/06 04:47:00;;;;;;;3.43;2.97;;;;;;;;;;6214166;23;20181;-91
2023/12/06 04:49:28;;;;;;;10.77;5.87;;;;;;;;;;6214328;23;20182;-90
2023/12/06 04:51:57;;;;;;;10.07;6.87;;;;;;;;;;6215022;23;20167;-90
2023/12/06 04:54:26;;;;;;;8.10;5.70;;;;;;;;;;6214929;23;20171;-91
2023/12/06 04:56:54;;;;;;;2.50;2.40;;;;;;;;;;6214598;23;20171;-90
2023/12/06 04:59:24;;;;;;;3.83;3.53;;;;;;;;;;6214487;23;20257;-90
2023/12/06 05:01:54;;;;;;;2.60;2.40;;;;;;;;;;6214241;23;20190;-91
2023/12/06 05:04:23;;;;;;;2.00;1.90;;;;;;;;;;6213666;23;20216;-92
2023/12/06 05:06:53;;;;;;;1.50;1.43;;;;;;;;;;6214395;23;20166;-91
2023/12/06 05:09:22;;;;;;;1.83;1.77;;;;;;;;;;6214686;23;20216;-91
2023/12/06 05:11:50;;;;;;;3.80;3.50;;;;;;;;;;6215101;23;20184;-91
2023/12/06 05:14:19;;;;;;;5.80;3.00;;;;;;;;;;6214831;23;20241;-92
2023/12/06 05:16:48;;;;;;;2.93;2.77;;;;;;;;;;6214313;23;20240;-91
2023/12/06 05:19:18;;;;;;;1.10;1.10;;;;;;;;;;6214391;23;20174;-90
2023/12/06 05:21:46;;;;;;;3.33;3.10;;;;;;;;;;6215080;23;20210;-91
2023/12/06 05:24:15;;;;;;;2.77;2.57;;;;;;;;;;6214536;23;20271;-91
2023/12/06 05:26:45;;;;;;;4.27;3.33;;;;;;;;;;6214376;23;20257;-91
2023/12/06 05:29:13;;;;;;;3.47;3.17;;;;;;;;;;6214087;23;20204;-91
2023/12/06 05:31:43;;;;;;;2.27;2.17;;;;;;;;;;6214526;23;20170;-91
2023/12/06 05:34:11;;;;;;;2.80;2.60;;;;;;;;;;6214525;23;20229;-92
2023/12/06 05:36:42;;;;;;;2.27;2.07;;;;;;;;;;6214784;23;20269;-91
2023/12/06 05:39:11;;;;;;;5.67;4.03;;;;;;;;;;6214499;23;20209;-90
2023/12/06 05:41:40;;;;;;;4.27;2.20;;;;;;;;;;6214374;23;20188;-90
2023/12/06 05:44:09;;;;;;;4.00;3.63;;;;;;;;;;6214710;23;20253;-90
2023/12/06 05:46:37;;;;;;;4.90;3.33;;;;;;;;;;6214000;23;20202;-90
2023/12/06 05:49:06;;;;;;;4.47;3.93;;;;;;;;;;6213812;23;20171;-90
2023/12/06 05:51:35;;;;;;;5.50;4.73;;;;;;;;;;6214432;23;20170;-90
2023/12/06 05:54:05;;;;;;;4.60;3.67;;;;;;;;;;6214390;23;20171;-90
2023/12/06 05:56:33;;;;;;;4.63;4.23;;;;;;;;;;6213970;23;20202;-89
2023/12/06 05:59:02;;;;;;;5.80;4.37;;;;;;;;;;6213828;23;20261;-89
2023/12/06 06:01:30;;;;;;;2.83;2.63;;;;;;;;;;6214725;23;20210;-89
2023/12/06 06:03:59;;;;;;;3.37;2.87;;;;;;;;;;6214355;23;20186;-89
2023/12/06 06:06:28;;;;;;;3.33;3.13;;;;;;;;;;6213766;23;20205;-90
2023/12/06 06:08:56;;;;;;;2.30;2.20;;;;;;;;;;6214248;23;20203;-89
2023/12/06 06:11:26;;;;;;;6.00;3.30;;;;;;;;;;6214061;23;20182;-89
2023/12/06 06:13:55;;;;;;;5.53;4.53;;;;;;;;;;6213981;23;20166;-89
2023/12/06 06:16:24;;;;;;;3.93;3.53;;;;;;;;;;6213942;23;20179;-88
2023/12/06 06:18:53;;;;;;;3.97;2.00;;;;;;;;;;6213209;23;20200;-89
2023/12/06 06:21:21;;;;;;;4.83;3.73;;;;;;;;;;6213932;23;20237;-88
2023/12/06 06:23:50;;;;;;;2.73;2.07;;;;;;;;;;6213327;23;20213;-89
2023/12/06 06:26:18;;;;;;;3.37;2.67;;;;;;;;;;6213897;23;20233;-89
2023/12/06 06:28:48;;;;;;;1.47;1.37;;;;;;;;;;6212923;23;20205;-89
2023/12/06 06:31:17;;;;;;;1.97;1.73;;;;;;;;;;6213733;23;20166;-89
2023/12/06 06:33:46;;;;;;;2.23;2.13;;;;;;;;;;6213817;23;20177;-89
2023/12/06 06:36:15;;;;;;;2.43;2.30;;;;;;;;;;6213240;23;20181;-89
2023/12/06 06:38:43;;;;;;;3.33;3.03;;;;;;;;;;6213207;23;20187;-89
2023/12/06 06:41:12;;;;;;;5.33;2.27;;;;;;;;;;6213377;23;20174;-89
2023/12/06 06:43:40;;;;;;;1.63;1.63;;;;;;;;;;6213952;23;20202;-83
2023/12/06 06:46:11;;;;;;;3.03;2.90;;;;;;;;;;6213361;23;20193;-84
2023/12/06 06:48:39;;;;;;;2.00;1.43;;;;;;;;;;6212857;23;20170;-84
2023/12/06 06:51:09;;;;;;;0.80;0.80;;;;;;;;;;6213471;23;20258;-84
2023/12/06 06:53:37;;;;;;;1.10;1.10;;;;;;;;;;6213897;23;20182;-84
2023/12/06 06:56:06;;;;;;;0.80;0.80;;;;;;;;;;6213576;23;20174;-84
2023/12/06 06:58:34;;;;;;;1.50;1.50;;;;;;;;;;6212886;23;20182;-84
2023/12/06 07:01:03;;;;;;;0.90;0.90;;;;;;;;;;6213236;23;20253;-83
2023/12/06 07:03:33;;;;;;;2.30;2.27;;;;;;;;;;6213226;23;20277;-83
2023/12/06 07:06:02;;;;;;;1.47;1.47;;;;;;;;;;6213100;23;20249;-83
2023/12/06 07:08:31;;;;;;;0.87;0.87;;;;;;;;;;6212980;23;20224;-82
2023/12/06 07:11:00;;;;;;;1.37;1.37;;;;;;;;;;6213429;23;20174;-82
2023/12/06 07:13:29;;;;;;;2.13;2.03;;;;;;;;;;6213756;23;20176;-82
2023/12/06 07:15:57;;;;;;;1.80;1.70;;;;;;;;;;6213070;23;20170;-82
2023/12/06 07:18:27;;;;;;;2.50;2.40;;;;;;;;;;6215080;23;20202;-83
2023/12/06 07:20:58;;;;;;;1.10;1.10;;;;;;;;;;6216114;23;20240;-82
2023/12/06 07:23:26;;;;;;;0.97;0.97;;;;;;;;;;6216063;23;20198;-82
2023/12/06 07:25:55;;;;;;;1.03;1.03;;;;;;;;;;6215160;23;20202;-83
2023/12/06 07:28:24;;;;;;;4.30;3.93;;;;;;;;;;6215186;23;20337;-82
2023/12/06 07:30:52;;;;;;;2.73;2.53;;;;;;;;;;6215113;23;20178;-82
2023/12/06 07:33:21;;;;;;;0.80;0.80;;;;;;;;;;6216108;23;20178;-82
2023/12/06 07:35:50;;;;;;;2.70;2.37;;;;;;;;;;6216133;23;20178;-82
2023/12/06 07:38:20;;;;;;;2.03;1.90;;;;;;;;;;6215707;23;20246;-82
2023/12/06 07:40:49;;;;;;;2.17;2.07;;;;;;;;;;6215715;23;20186;-83
2023/12/06 07:43:17;;;;;;;1.93;1.83;;;;;;;;;;6215578;23;20253;-83
2023/12/06 07:45:46;;;;;;;1.67;1.57;;;;;;;;;;6215910;23;20174;-83
2023/12/06 07:48:17;;;;;;;1.73;1.63;;;;;;;;;;6215329;23;20178;-82
2023/12/06 07:50:46;;;;;;;5.50;3.37;;;;;;;;;;6215251;23;20279;-82
2023/12/06 07:53:14;;;;;;;0.90;0.90;;;;;;;;;;6216215;23;20175;-83
2023/12/06 07:55:45;;;;;;;1.23;1.20;;;;;;;;;;6215948;23;20174;-82
2023/12/06 07:58:14;;;;;;;2.57;2.23;;;;;;;;;;6215295;23;20178;-83
2023/12/06 08:00:43;;;;;;;2.20;2.10;;;;;;;;;;6215789;23;20181;-83
2023/12/06 08:03:12;;;;;;;1.77;1.70;;;;;;;;;;6215713;23;20189;-83
2023/12/06 08:05:40;;;;;;;0.87;0.87;;;;;;;;;;6215979;23;20428;-83
2023/12/06 08:08:09;;;;;;;1.23;1.23;;;;;;;;;;6215503;23;20181;-83
2023/12/06 08:10:41;;;;;;;2.03;1.83;;;;;;;;;;6215730;23;20174;-83
2023/12/06 08:13:11;;;;;;;1.67;1.67;;;;;;;;;;6215520;23;20190;-83
2023/12/06 08:15:40;;;;;;;2.20;2.20;;;;;;;;;;6216090;23;20205;-83
2023/12/06 08:18:09;;;;;;;11.33;3.00;;;;;;;;;;6214795;23;20323;-83
2023/12/06 08:20:37;;;;;;;2.70;2.50;;;;;;;;;;6215042;23;20174;-83
2023/12/06 08:23:06;;;;;;;2.57;1.90;;;;;;;;;;6215122;23;20217;-82
2023/12/06 08:25:35;;;;;;;1.37;1.37;;;;;;;;;;6214758;23;20258;-82
2023/12/06 08:28:04;;;;;;;2.33;2.17;;;;;;;;;;6214870;23;20166;-82
2023/12/06 08:30:34;;;;;;;1.63;1.53;;;;;;;;;;6214830;23;20265;-83
2023/12/06 08:33:03;;;;;;;3.07;2.87;;;;;;;;;;6215348;23;20178;-83
2023/12/06 08:35:32;;;;;;;2.47;2.30;;;;;;;;;;6214834;23;20276;-83
2023/12/06 08:38:00;;;;;;;2.07;1.97;;;;;;;;;;6214530;23;20175;-85
2023/12/06 08:40:29;;;;;;;2.23;2.13;;;;;;;;;;6214757;23;20174;-86
2023/12/06 08:43:01;;;;;;;1.10;1.10;;;;;;;;;;6215040;23;20240;-86
2023/12/06 08:45:33;;;;;;;1.63;1.53;;;;;;;;;;6215266;23;20190;-86
2023/12/06 08:48:04;;;;;;;2.00;1.97;;;;;;;;;;6214822;23;20269;-86
2023/12/06 08:50:32;;;;;;;0.87;0.87;;;;;;;;;;6214835;23;20184;-86
2023/12/06 08:53:01;;;;;;;1.03;1.03;;;;;;;;;;6215159;23;20201;-86
2023/12/06 08:55:29;;;;;;;1.13;1.13;;;;;;;;;;6214694;23;20174;-86
2023/12/06 08:57:58;;;;;;;1.00;1.00;;;;;;;;;;6214623;23;20178;-85
2023/12/06 09:00:27;;;;;;;0.80;0.80;;;;;;;;;;6214739;23;20185;-86
2023/12/06 09:02:55;;;;;;;1.10;1.10;;;;;;;;;;6214743;23;20205;-86
2023/12/06 09:05:25;;;;;;;1.03;1.03;;;;;;;;;;6215206;23;20248;-86
2023/12/06 09:07:54;;;;;;;2.50;2.40;;;;;;;;;;6214538;23;20182;-86
2023/12/06 09:10:22;;;;;;;3.17;1.33;;;;;;;;;;6214397;23;20205;-85
2023/12/06 09:12:52;;;;;;;1.07;1.07;;;;;;;;;;6214755;23;20182;-86
2023/12/06 09:15:20;;;;;;;2.30;2.10;;;;;;;;;;6214868;23;20166;-86
2023/12/06 09:17:49;;;;;;;1.23;1.23;;;;;;;;;;6214707;23;20184;-86
2023/12/06 09:20:18;;;;;;;2.47;2.27;;;;;;;;;;6214423;23;20181;-82
2023/12/06 09:22:49;;;;;;;2.37;2.27;;;;;;;;;;6214563;23;20198;-82
2023/12/06 09:25:17;;;;;;;1.50;1.47;;;;;;;;;;6214369;23;20206;-82
2023/12/06 09:27:46;;;;;;;2.63;2.50;;;;;;;;;;6213710;23;20239;-82
2023/12/06 09:30:18;;;;;;;2.17;1.83;;;;;;;;;;6214616;23;20187;-82
2023/12/06 09:32:47;;;;;;;3.87;3.23;;;;;;;;;;6213598;23;20185;-82
2023/12/06 09:35:15;;;;;;;2.97;2.77;;;;;;;;;;6215133;23;20229;-82
2023/12/06 09:37:44;;;;;;;7.03;3.37;;;;;;;;;;6214039;23;20178;-82
2023/12/06 09:40:14;;;;;;;2.00;1.90;;;;;;;;;;6213645;23;20185;-82
2023/12/06 09:42:44;;;;;;;2.50;2.30;;;;;;;;;;6214534;23;20230;-82
2023/12/06 09:45:13;;;;;;;5.20;2.50;;;;;;;;;;6214445;23;20206;-82
2023/12/06 09:47:43;;;;;;;1.67;1.57;;;;;;;;;;6213892;23;20170;-83
2023/12/06 09:50:12;;;;;;;1.70;1.60;;;;;;;;;;6214168;23;20174;-82
2023/12/06 09:52:41;;;;;;;4.07;3.70;;;;;;;;;;6214453;23;20197;-82
2023/12/06 09:55:10;;;;;;;2.13;2.03;;;;;;;;;;6215360;23;20181;-82
2023/12/06 09:57:41;;;;;;;0.93;0.93;;;;;;;;;;6214058;23;20181;-82
2023/12/06 10:00:13;;;;;;;0.80;0.80;;;;;;;;;;6213407;23;20216;-81
2023/12/06 10:02:48;;;;;;;2.07;1.93;;;;;;;;;;6214408;23;20179;-82
2023/12/06 10:05:17;;;;;;;1.73;1.63;;;;;;;;;;6214538;23;20193;-82
2023/12/06 10:07:46;;;;;;;26.23;4.37;;;;;;;;;;6214455;23;20174;-82
2023/12/06 10:10:15;;;;;;;1.57;1.53;;;;;;;;;;6213425;23;20186;-82
2023/12/06 10:12:49;;;;;;;1.93;1.83;;;;;;;;;;6214441;23;20260;-82
2023/12/06 10:15:18;;;;;;;1.20;1.20;;;;;;;;;;6215042;23;20175;-82
2023/12/06 10:17:47;;;;;;;1.77;1.67;;;;;;;;;;6214028;23;20189;-82
2023/12/06 10:20:19;;;;;;;1.50;1.40;;;;;;;;;;6213095;23;20182;-82
2023/12/06 10:22:48;;;;;;;1.13;1.13;;;;;;;;;;6213704;23;20209;-82
2023/12/06 10:25:17;;;;;;;5.20;1.80;;;;;;;;;;6214006;23;20292;-82
2023/12/06 10:27:45;;;;;;;1.83;1.73;;;;;;;;;;6213891;23;20174;-82
2023/12/06 10:30:21;;;;;;;1.97;1.87;;;;;;;;;;6213284;23;20197;-82
2023/12/06 10:32:52;;;;;;;1.43;1.43;;;;;;;;;;6214589;23;20174;-81
2023/12/06 10:35:21;;;;;;;4.90;2.87;;;;;;;;;;6214074;23;20195;-82
2023/12/06 10:37:51;;;;;;;1.23;1.23;;;;;;;;;;6213464;23;20174;-82
2023/12/06 10:40:23;;;;;;;1.00;1.00;;;;;;;;;;6213617;23;20170;-82
2023/12/06 10:42:55;;;;;;;2.13;2.03;;;;;;;;;;6213860;23;20174;-82
2023/12/06 10:45:25;;;;;;;2.53;2.40;;;;;;;;;;6214052;23;20274;-82
2023/12/06 10:47:56;;;;;;;3.93;2.57;;;;;;;;;;6213449;23;20175;-82
2023/12/06 10:50:25;;;;;;;2.07;1.67;;;;;;;;;;6213613;23;20190;-82
2023/12/06 10:52:54;;;;;;;2.90;2.10;;;;;;;;;;6213392;23;20225;-82
2023/12/06 10:55:23;;;;;;;6.03;2.37;;;;;;;;;;6213735;23;20175;-82
2023/12/06 10:57:54;;;;;;;2.33;2.13;;;;;;;;;;6211942;23;20178;-82
2023/12/06 11:00:26;;;;;;;7.90;3.87;;;;;;;;;;6212840;23;20179;-82
2023/12/06 11:02:56;;;;;;;3.90;2.37;;;;;;;;;;6214240;23;20201;-82
2023/12/06 11:05:27;;;;;;;2.27;2.07;;;;;;;;;;6213887;23;20269;-82
2023/12/06 11:08:04;;;;;;;3.33;3.03;;;;;;;;;;6213574;23;20197;-82
2023/12/06 11:10:38;;;;;;;2.37;2.17;;;;;;;;;;6213763;23;20277;-81
2023/12/06 11:13:13;;;;;;;2.47;1.50;;;;;;;;;;6213814;23;20230;-82
2023/12/06 11:15:52;;;;;;;1.20;1.20;;;;;;;;;;6214111;23;20167;-81
2023/12/06 11:18:22;;;;;;;1.70;1.60;;;;;;;;;;6213152;23;20174;-82
2023/12/06 11:20:51;;;;;;;1.33;1.33;;;;;;;;;;6213493;23;20258;-81
2023/12/06 11:23:22;;;;;;;0.70;0.70;;;;;;;;;;6213930;23;20190;-82
2023/12/06 11:25:56;;;;;;;2.03;1.93;;;;;;;;;;6213721;23;20204;-81
2023/12/06 11:28:24;;;;;;;1.47;1.40;;;;;;;;;;6213530;23;20267;-81
2023/12/06 11:30:57;;;;;;;4.40;3.83;;;;;;;;;;6212748;23;20172;-80
2023/12/06 11:33:26;;;;;;;3.07;2.77;;;;;;;;;;6213981;23;20182;-81
2023/12/06 11:35:56;;;;;;;7.10;3.03;;;;;;;;;;6213363;23;20168;-81
2023/12/06 11:38:33;;;;;;;1.57;1.50;;;;;;;;;;6213443;23;20179;-81
2023/12/06 11:41:01;;;;;;;3.00;2.70;;;;;;;;;;6213360;23;20175;-81
2023/12/06 11:43:33;;;;;;;1.77;1.67;;;;;;;;;;6213880;23;20186;-81
2023/12/06 11:46:08;;;;;;;1.87;1.77;;;;;;;;;;6213728;23;20191;-84
2023/12/06 11:48:38;;;;;;;0.80;0.80;;;;;;;;;;6214721;23;20166;-81
2023/12/06 11:51:08;;;;;;;1.13;1.13;;;;;;;;;;6213574;23;20183;-81
2023/12/06 11:53:37;;;;;;;1.83;1.73;;;;;;;;;;6214079;23;20181;-81
2023/12/06 11:56:08;;;;;;;0.83;0.83;;;;;;;;;;6214083;23;20181;-81
2023/12/06 11:58:39;;;;;;;1.47;1.47;;;;;;;;;;6213714;23;20186;-81
2023/12/06 12:01:10;;;;;;;3.30;1.07;;;;;;;;;;6213523;23;20178;-81
2023/12/06 12:03:39;;;;;;;2.10;2.10;;;;;;;;;;6214461;23;20185;-81
2023/12/06 12:06:08;;;;;;;1.67;1.57;;;;;;;;;;6216012;23;20194;-81
2023/12/06 12:08:37;;;;;;;1.40;1.37;;;;;;;;;;6216692;23;20217;-81
2023/12/06 12:11:11;;;;;;;1.60;1.57;;;;;;;;;;6216936;23;20193;-81
2023/12/06 12:13:40;;;;;;;1.00;1.00;;;;;;;;;;6216581;23;20170;-81
2023/12/06 12:16:12;;;;;;;1.57;1.47;;;;;;;;;;6215573;23;20274;-81
2023/12/06 12:18:42;;;;;;;0.97;0.97;;;;;;;;;;6214978;23;20202;-81
2023/12/06 12:21:16;;;;;;;2.27;2.17;;;;;;;;;;6215151;23;20271;-81
2023/12/06 12:23:47;;;;;;;0.87;0.87;;;;;;;;;;6215985;23;20242;-81
2023/12/06 12:26:16;;;;;;;1.53;1.10;;;;;;;;;;6215087;23;20207;-81
2023/12/06 12:28:45;;;;;;;0.97;0.97;;;;;;;;;;6215349;23;20178;-81
2023/12/06 12:31:17;;;;;;;1.43;1.43;;;;;;;;;;6215051;23;20174;-81
2023/12/06 12:33:49;;;;;;;2.10;1.40;;;;;;;;;;6213978;23;20237;-82
2023/12/06 12:36:25;;;;;;;1.00;1.00;;;;;;;;;;6214860;23;20258;-82
2023/12/06 12:38:58;;;;;;;0.80;0.80;;;;;;;;;;6215164;23;20179;-82
2023/12/06 12:41:27;;;;;;;4.07;1.20;;;;;;;;;;6215042;23;20178;-81
2023/12/06 12:43:55;;;;;;;2.50;2.30;;;;;;;;;;6215229;23;20185;-82
2023/12/06 12:46:27;;;;;;;3.27;2.70;;;;;;;;;;6214278;23;20202;-81
2023/12/06 12:48:56;;;;;;;0.87;0.87;;;;;;;;;;6215281;23;20179;-81
2023/12/06 12:51:24;;;;;;;0.93;0.93;;;;;;;;;;6214191;23;20175;-81
2023/12/06 12:53:54;;;;;;;1.17;1.17;;;;;;;;;;6214541;23;20199;-82
2023/12/06 12:56:22;;;;;;;1.63;1.53;;;;;;;;;;6215103;23;20225;-81
2023/12/06 12:58:51;;;;;;;1.67;1.20;;;;;;;;;;6214359;23;20205;-81
2023/12/06 13:01:22;;;;;;;6.23;1.57;;;;;;;;;;6214260;23;20213;-81
2023/12/06 13:03:53;;;;;;;1.00;1.00;;;;;;;;;;6214345;23;20179;-81
2023/12/06 13:06:25;;;;;;;1.20;1.20;;;;;;;;;;6214504;23;20194;-81
2023/12/06 13:08:56;;;;;;;2.07;1.87;;;;;;;;;;6212171;23;20198;-81
2023/12/06 13:11:25;;;;;;;2.00;1.87;;;;;;;;;;6213433;23;20178;-81
2023/12/06 13:13:53;;;;;;;4.27;3.97;;;;;;;;;;6214296;23;20198;-82
2023/12/06 13:16:22;;;;;;;3.17;1.87;;;;;;;;;;6212640;23;20223;-81
2023/12/06 13:18:51;;;;;;;3.27;2.97;;;;;;;;;;6214286;23;20179;-81
2023/12/06 13:21:21;;;;;;;7.07;2.00;;;;;;;;;;6212979;23;20175;-81
2023/12/06 13:23:49;;;;;;;2.30;2.20;;;;;;;;;;6212034;23;20202;-81
2023/12/06 13:26:18;;;;;;;2.63;2.20;;;;;;;;;;6214106;23;20210;-81
2023/12/06 13:28:46;;;;;;;2.03;1.93;;;;;;;;;;6214965;23;20181;-81
2023/12/06 13:31:15;;;;;;;2.23;1.57;;;;;;;;;;6214632;23;20233;-81
2023/12/06 13:33:47;;;;;;;3.70;2.33;;;;;;;;;;6215184;23;20170;-81
2023/12/06 13:36:15;;;;;;;3.77;2.13;;;;;;;;;;6214881;23;20174;-81
2023/12/06 13:38:45;;;;;;;1.07;1.07;;;;;;;;;;6213981;23;20185;-82
2023/12/06 13:41:14;;;;;;;2.37;2.03;;;;;;;;;;6214280;23;20217;-80
2023/12/06 13:43:43;;;;;;;1.03;1.03;;;;;;;;;;6215285;23;20175;-81
2023/12/06 13:46:11;;;;;;;1.10;1.10;;;;;;;;;;6214465;23;20182;-81
2023/12/06 13:48:40;;;;;;;1.30;1.27;;;;;;;;;;6214556;23;20171;-81
2023/12/06 13:51:08;;;;;;;2.23;2.00;;;;;;;;;;6213571;23;20207;-81
2023/12/06 13:53:37;;;;;;;0.70;0.70;;;;;;;;;;6213786;23;20185;-80
2023/12/06 13:56:07;;;;;;;4.23;1.77;;;;;;;;;;6214830;23;20174;-81
2023/12/06 13:58:36;;;;;;;1.43;1.33;;;;;;;;;;6213335;23;20166;-81
2023/12/06 14:01:06;;;;;;;1.30;1.30;;;;;;;;;;6213553;23;20261;-81
2023/12/06 14:03:36;;;;;;;1.93;1.83;;;;;;;;;;6214918;23;20166;-81
2023/12/06 14:06:05;;;;;;;2.10;2.00;;;;;;;;;;6214946;23;20182;-81
2023/12/06 14:08:33;;;;;;;2.30;2.10;;;;;;;;;;6212466;23;20198;-81
2023/12/06 14:11:02;;;;;;;2.33;1.43;;;;;;;;;;6213541;23;20206;-82
2023/12/06 14:13:33;;;;;;;1.77;1.67;;;;;;;;;;6214143;23;20267;-83
2023/12/06 14:16:02;;;;;;;1.70;1.60;;;;;;;;;;6215153;23;20174;-81
2023/12/06 14:18:31;;;;;;;1.37;1.33;;;;;;;;;;6213858;23;20177;-81
2023/12/06 14:21:00;;;;;;;1.13;1.13;;;;;;;;;;6214000;23;20257;-82
2023/12/06 14:23:29;;;;;;;3.03;1.43;;;;;;;;;;6214057;23;20190;-82
2023/12/06 14:25:58;;;;;;;2.17;2.07;;;;;;;;;;6213778;23;20202;-81
2023/12/06 14:28:26;;;;;;;1.93;1.77;;;;;;;;;;6213503;23;20206;-81
2023/12/06 14:30:57;;;;;;;1.23;1.17;;;;;;;;;;6212908;23;20170;-81
2023/12/06 14:33:25;;;;;;;1.90;1.80;;;;;;;;;;6214110;23;20185;-82
2023/12/06 14:35:55;;;;;;;1.70;1.60;;;;;;;;;;6213743;23;20224;-86
2023/12/06 14:38:24;;;;;;;1.90;1.70;;;;;;;;;;6213807;23;20174;-86
2023/12/06 14:41:02;;;;;;;1.90;1.80;;;;;;;;;;6213223;23;20182;-86
2023/12/06 14:43:31;;;;;;;0.87;0.87;;;;;;;;;;6213706;23;20182;-87
2023/12/06 14:46:01;;;;;;;0.93;0.93;;;;;;;;;;6213770;23;20202;-87
2023/12/06 14:48:30;;;;;;;1.17;1.17;;;;;;;;;;6213072;23;20221;-86
2023/12/06 14:51:00;;;;;;;1.37;1.37;;;;;;;;;;6213205;23;20193;-84
2023/12/06 14:53:29;;;;;;;1.20;1.20;;;;;;;;;;6213418;23;20258;-86
2023/12/06 14:55:59;;;;;;;1.03;1.03;;;;;;;;;;6213578;23;20177;-85